Time;durP1;ratioP1;P1;durP2;ratioP2;P2;SDS_P1;SDS_P2;PMS_P1;PMS_P2;Temp;Humidity;BMP_temperature;BMP_pressure;BME280_temperature;BME280_humidity;BME280_pressure;Samples;Min_cycle;Max_cycle;Signal;HPM_P1;HPM_P2
2021/08/08 00:00:48;;;;;;;2.35;1.10;;;24.40;48.30;;;;;;5052026;28;20225;-65
2021/08/08 00:03:15;;;;;;;1.20;1.00;;;24.40;48.30;;;;;;5050799;28;20321;-65
2021/08/08 00:05:41;;;;;;;0.80;0.80;;;24.40;48.20;;;;;;5051486;28;20697;-65
2021/08/08 00:08:08;;;;;;;0.85;0.85;;;24.50;48.30;;;;;;5050906;28;20257;-65
2021/08/08 00:10:34;;;;;;;1.30;0.88;;;24.40;48.20;;;;;;5052305;28;20245;-65
2021/08/08 00:13:01;;;;;;;1.05;0.95;;;24.40;48.20;;;;;;5050896;28;20626;-65
2021/08/08 00:15:27;;;;;;;0.90;0.90;;;24.50;48.30;;;;;;5051476;28;20202;-64
2021/08/08 00:17:54;;;;;;;1.27;0.90;;;24.40;48.20;;;;;;5050129;28;20260;-65
2021/08/08 00:20:20;;;;;;;1.05;0.90;;;24.40;48.10;;;;;;5051815;28;20256;-64
2021/08/08 00:22:47;;;;;;;1.00;0.88;;;24.40;48.10;;;;;;5049993;28;20741;-65
2021/08/08 00:25:13;;;;;;;0.80;0.80;;;24.40;48.10;;;;;;5050410;28;20233;-64
2021/08/08 00:27:40;;;;;;;1.42;1.00;;;24.40;48.10;;;;;;5050913;28;20234;-64
2021/08/08 00:30:06;;;;;;;0.95;0.95;;;24.40;48.10;;;;;;5051340;28;20209;-64
2021/08/08 00:32:33;;;;;;;1.08;1.00;;;24.40;48.10;;;;;;5050403;28;20240;-65
2021/08/08 00:34:59;;;;;;;1.85;0.98;;;24.40;48.10;;;;;;5050381;28;20738;-64
2021/08/08 00:37:26;;;;;;;1.35;1.00;;;24.40;48.00;;;;;;5050129;28;20240;-65
2021/08/08 00:39:52;;;;;;;1.67;0.95;;;24.40;48.10;;;;;;5051443;28;20233;-65
2021/08/08 00:42:19;;;;;;;1.92;1.00;;;24.40;48.00;;;;;;5050320;28;20585;-64
2021/08/08 00:44:45;;;;;;;1.20;1.10;;;24.40;48.10;;;;;;5045754;28;20236;-65
2021/08/08 00:47:12;;;;;;;1.42;0.93;;;24.40;48.00;;;;;;5049968;28;20244;-64
2021/08/08 00:49:39;;;;;;;1.20;1.10;;;24.40;48.00;;;;;;5049829;28;20225;-65
2021/08/08 00:52:05;;;;;;;1.42;0.95;;;24.40;48.10;;;;;;5045460;28;20233;-65
2021/08/08 00:54:32;;;;;;;0.90;0.90;;;24.40;48.10;;;;;;5049340;28;20225;-65
2021/08/08 00:56:59;;;;;;;0.98;0.90;;;24.40;48.00;;;;;;5051399;28;20623;-64
2021/08/08 00:59:25;;;;;;;1.20;1.10;;;24.40;48.00;;;;;;5050549;28;20249;-64
2021/08/08 01:01:52;;;;;;;1.13;1.02;;;24.40;48.00;;;;;;5050962;28;20259;-65
2021/08/08 01:04:18;;;;;;;1.10;1.00;;;24.40;48.00;;;;;;5050101;28;20233;-65
2021/08/08 01:06:45;;;;;;;1.67;1.05;;;24.40;48.10;;;;;;5050303;28;20293;-64
2021/08/08 01:09:11;;;;;;;1.15;0.90;;;24.40;48.00;;;;;;5050180;28;20249;-65
2021/08/08 01:11:37;;;;;;;1.13;1.02;;;24.40;48.00;;;;;;5051629;28;20677;-65
2021/08/08 01:14:04;;;;;;;1.13;0.80;;;24.40;48.00;;;;;;5050383;28;20260;-65
2021/08/08 01:16:30;;;;;;;1.55;0.80;;;24.40;48.00;;;;;;5050281;28;20688;-65
2021/08/08 01:18:57;;;;;;;0.80;0.80;;;24.40;48.00;;;;;;5049779;28;20260;-64
2021/08/08 01:21:23;;;;;;;1.30;1.10;;;24.40;48.10;;;;;;5051373;28;20237;-65
2021/08/08 01:23:50;;;;;;;0.85;0.80;;;24.40;48.00;;;;;;5048518;28;20733;-65
2021/08/08 01:26:16;;;;;;;1.85;0.93;;;24.40;48.00;;;;;;5048759;28;20221;-65
2021/08/08 01:28:43;;;;;;;0.70;0.70;;;24.40;48.10;;;;;;5049898;28;20248;-64
2021/08/08 01:31:10;;;;;;;0.90;0.90;;;24.40;48.00;;;;;;5050155;28;20198;-65
2021/08/08 01:33:36;;;;;;;1.40;0.98;;;24.40;48.00;;;;;;5050266;28;20256;-64
2021/08/08 01:36:03;;;;;;;1.20;1.05;;;24.40;48.00;;;;;;5048946;28;20241;-65
2021/08/08 01:38:29;;;;;;;1.25;0.80;;;24.40;48.10;;;;;;5051008;28;20237;-65
2021/08/08 01:40:56;;;;;;;0.88;0.88;;;24.40;48.00;;;;;;5049948;28;20209;-64
2021/08/08 01:43:22;;;;;;;1.67;1.10;;;24.40;48.00;;;;;;5050644;28;20600;-64
2021/08/08 01:45:48;;;;;;;1.40;1.00;;;24.40;48.00;;;;;;5048369;28;20297;-64
2021/08/08 01:48:15;;;;;;;1.15;1.00;;;24.40;48.10;;;;;;5050606;28;20245;-64
2021/08/08 01:50:41;;;;;;;0.77;0.77;;;24.40;48.00;;;;;;5050139;28;20233;-64
2021/08/08 01:53:08;;;;;;;1.67;0.98;;;24.40;48.00;;;;;;5054665;28;20230;-64
2021/08/08 01:55:34;;;;;;;1.10;1.00;;;24.40;48.10;;;;;;5052171;28;20229;-65
2021/08/08 01:58:01;;;;;;;0.80;0.80;;;24.40;48.00;;;;;;5054015;28;20661;-64
2021/08/08 02:00:27;;;;;;;0.88;0.88;;;24.40;48.00;;;;;;5054116;28;20233;-65
2021/08/08 02:02:55;;;;;;;1.00;0.90;;;24.40;48.10;;;;;;5054266;28;20233;-64
2021/08/08 02:05:21;;;;;;;0.70;0.70;;;24.40;48.00;;;;;;5052831;28;20204;-65
2021/08/08 02:07:47;;;;;;;0.90;0.80;;;24.40;48.70;;;;;;5053998;28;20246;-65
2021/08/08 02:10:14;;;;;;;0.75;0.75;;;24.40;48.00;;;;;;5053376;28;20256;-65
2021/08/08 02:12:40;;;;;;;1.00;0.90;;;24.40;48.00;;;;;;5053962;28;20236;-65
2021/08/08 02:15:09;;;;;;;1.00;0.90;;;24.40;48.00;;;;;;5052147;28;20260;-64
2021/08/08 02:17:35;;;;;;;0.90;0.90;;;24.40;48.00;;;;;;5053811;28;20248;-64
2021/08/08 02:20:01;;;;;;;0.85;0.75;;;24.40;48.00;;;;;;5053666;28;20253;-65
2021/08/08 02:22:28;;;;;;;0.80;0.80;;;24.40;48.00;;;;;;5052177;28;20255;-65
2021/08/08 02:24:54;;;;;;;1.25;1.02;;;24.40;48.10;;;;;;5052843;28;20237;-65
2021/08/08 02:27:21;;;;;;;2.17;0.80;;;24.40;48.00;;;;;;5053725;28;20345;-65
2021/08/08 02:29:47;;;;;;;1.25;0.90;;;24.40;48.00;;;;;;5053262;28;20280;-65
2021/08/08 02:32:15;;;;;;;1.92;0.80;;;24.40;48.00;;;;;;5053089;28;20725;-65
2021/08/08 02:34:41;;;;;;;1.00;1.00;;;24.40;48.00;;;;;;5053081;28;20226;-65
2021/08/08 02:37:08;;;;;;;0.85;0.85;;;24.40;48.00;;;;;;5046612;28;20622;-65
2021/08/08 02:39:34;;;;;;;1.75;1.02;;;24.40;48.00;;;;;;5053671;28;20237;-65
2021/08/08 02:42:01;;;;;;;2.25;1.10;;;24.40;48.10;;;;;;5052816;28;20248;-64
2021/08/08 02:44:27;;;;;;;1.08;0.98;;;24.40;48.00;;;;;;5051747;28;20685;-65
2021/08/08 02:46:54;;;;;;;0.80;0.80;;;24.40;48.00;;;;;;5052542;28;20235;-65
2021/08/08 02:49:20;;;;;;;0.80;0.80;;;24.40;48.10;;;;;;5051776;28;20229;-64
2021/08/08 02:51:47;;;;;;;0.70;0.70;;;24.40;48.00;;;;;;5052414;28;20249;-65
2021/08/08 02:54:14;;;;;;;1.30;1.13;;;24.40;48.00;;;;;;5052016;28;20301;-64
2021/08/08 02:56:40;;;;;;;2.03;0.85;;;24.40;48.00;;;;;;5052056;28;20198;-65
2021/08/08 02:59:07;;;;;;;1.75;1.00;;;24.40;48.10;;;;;;5052777;28;20245;-62
2021/08/08 03:01:33;;;;;;;0.80;0.80;;;24.40;48.00;;;;;;5052385;28;20564;-64
2021/08/08 03:04:00;;;;;;;0.90;0.90;;;24.40;48.00;;;;;;5053024;28;20233;-64
2021/08/08 03:06:26;;;;;;;0.90;0.90;;;24.40;48.10;;;;;;5050657;28;20252;-64
2021/08/08 03:08:54;;;;;;;0.82;0.80;;;24.40;48.00;;;;;;5066654;28;20233;-64
2021/08/08 03:11:20;;;;;;;1.13;0.90;;;24.40;48.10;;;;;;5052176;28;20288;-63
2021/08/08 03:13:47;;;;;;;1.65;0.80;;;24.40;48.00;;;;;;5052653;28;20709;-64
2021/08/08 03:16:13;;;;;;;1.20;1.00;;;24.40;48.10;;;;;;5051193;28;20237;-64
2021/08/08 03:18:40;;;;;;;1.73;0.95;;;24.40;48.10;;;;;;5052702;28;20249;-64
2021/08/08 03:21:06;;;;;;;0.80;0.80;;;24.40;48.00;;;;;;5052298;28;20237;-64
2021/08/08 03:23:33;;;;;;;1.60;1.10;;;24.40;48.00;;;;;;5051099;28;20198;-64
2021/08/08 03:26:00;;;;;;;1.98;1.10;;;24.40;48.00;;;;;;5051208;28;20201;-64
2021/08/08 03:28:27;;;;;;;0.70;0.70;;;24.40;48.00;;;;;;5051876;28;20225;-64
2021/08/08 03:30:53;;;;;;;1.13;0.98;;;24.40;48.00;;;;;;5052066;28;20280;-64
2021/08/08 03:33:20;;;;;;;1.15;1.05;;;24.40;48.00;;;;;;5052270;28;20237;-64
2021/08/08 03:35:46;;;;;;;0.85;0.85;;;24.40;48.00;;;;;;5051011;28;20657;-64
2021/08/08 03:38:13;;;;;;;0.80;0.80;;;24.40;48.00;;;;;;5050846;28;20260;-64
2021/08/08 03:40:40;;;;;;;1.00;1.00;;;24.40;48.00;;;;;;5051807;28;20244;-64
2021/08/08 03:43:06;;;;;;;0.98;0.85;;;24.40;48.00;;;;;;5052489;28;20289;-63
2021/08/08 03:45:33;;;;;;;1.40;0.90;;;24.40;48.00;;;;;;5051110;28;20197;-64
2021/08/08 03:47:59;;;;;;;1.95;0.90;;;24.40;48.10;;;;;;5051473;28;20245;-64
2021/08/08 03:50:26;;;;;;;0.93;0.90;;;24.40;48.00;;;;;;5050537;28;20281;-64
2021/08/08 03:52:52;;;;;;;0.80;0.80;;;24.40;48.00;;;;;;5047900;28;20232;-64
2021/08/08 03:55:18;;;;;;;0.95;0.80;;;24.40;48.00;;;;;;5050690;28;20271;-64
2021/08/08 03:57:45;;;;;;;1.00;0.80;;;24.40;48.00;;;;;;5051010;28;20648;-64
2021/08/08 04:00:11;;;;;;;0.90;0.77;;;24.40;48.00;;;;;;5052266;28;20237;-64
2021/08/08 04:02:38;;;;;;;0.90;0.90;;;24.40;48.00;;;;;;5050700;28;20237;-64
2021/08/08 04:05:04;;;;;;;1.08;0.88;;;24.40;48.00;;;;;;5051670;28;20260;-64
2021/08/08 04:07:31;;;;;;;0.85;0.85;;;24.40;48.00;;;;;;5051184;28;20317;-64
2021/08/08 04:09:58;;;;;;;1.65;0.95;;;24.40;48.00;;;;;;5051308;28;20522;-63
2021/08/08 04:12:24;;;;;;;0.70;0.70;;;24.40;48.00;;;;;;5052223;28;20229;-64
2021/08/08 04:14:51;;;;;;;0.85;0.80;;;24.40;48.00;;;;;;5049611;28;20264;-64
2021/08/08 04:17:17;;;;;;;0.80;0.73;;;24.40;48.00;;;;;;5051649;28;20619;-64
2021/08/08 04:19:44;;;;;;;1.20;1.00;;;24.40;48.00;;;;;;5051004;28;20229;-64
2021/08/08 04:22:10;;;;;;;2.08;0.70;;;24.40;48.10;;;;;;5051182;28;20284;-64
2021/08/08 04:24:37;;;;;;;0.98;0.88;;;24.40;48.00;;;;;;5049739;28;20292;-65
2021/08/08 04:27:03;;;;;;;0.70;0.70;;;24.40;48.00;;;;;;5049715;28;20311;-64
2021/08/08 04:29:30;;;;;;;0.80;0.80;;;24.40;48.10;;;;;;5049980;28;20240;-64
2021/08/08 04:31:56;;;;;;;0.95;0.90;;;24.40;48.00;;;;;;5051102;28;20248;-64
2021/08/08 04:34:23;;;;;;;2.97;0.88;;;24.40;48.00;;;;;;5050539;28;20261;-64
2021/08/08 04:36:49;;;;;;;0.85;0.85;;;24.40;48.10;;;;;;5050971;28;20245;-64
2021/08/08 04:39:16;;;;;;;0.98;0.80;;;24.40;48.00;;;;;;5050833;28;20241;-64
2021/08/08 04:41:42;;;;;;;0.80;0.80;;;24.40;48.00;;;;;;5051387;28;20670;-64
2021/08/08 04:44:09;;;;;;;0.70;0.70;;;24.40;48.00;;;;;;5050625;28;20317;-64
2021/08/08 04:46:35;;;;;;;0.80;0.80;;;24.40;48.10;;;;;;5050862;28;20576;-64
2021/08/08 04:49:02;;;;;;;1.20;0.98;;;24.40;48.00;;;;;;5049691;28;20225;-64
2021/08/08 04:51:28;;;;;;;0.80;0.80;;;24.40;48.00;;;;;;5051087;28;20255;-64
2021/08/08 04:53:55;;;;;;;0.73;0.73;;;24.40;48.70;;;;;;5050410;28;20646;-64
2021/08/08 04:56:21;;;;;;;0.80;0.80;;;24.40;48.00;;;;;;5049430;28;20269;-64
2021/08/08 04:58:48;;;;;;;0.95;0.77;;;24.40;48.10;;;;;;5051455;28;20271;-64
2021/08/08 05:01:14;;;;;;;1.17;0.70;;;24.40;48.00;;;;;;5050356;28;20256;-64
2021/08/08 05:03:41;;;;;;;1.08;0.88;;;24.40;48.00;;;;;;5051481;28;20255;-64
2021/08/08 05:06:07;;;;;;;0.73;0.70;;;24.40;48.00;;;;;;5049340;28;20292;-64
2021/08/08 05:08:34;;;;;;;0.82;0.80;;;24.40;48.00;;;;;;5050384;28;20271;-64
2021/08/08 05:11:00;;;;;;;1.17;0.80;;;24.40;48.10;;;;;;5045067;28;20248;-64
2021/08/08 05:13:28;;;;;;;0.80;0.80;;;24.40;48.00;;;;;;5050770;28;20236;-64
2021/08/08 05:15:54;;;;;;;0.85;0.80;;;24.40;48.00;;;;;;5049798;28;20233;-64
2021/08/08 05:18:21;;;;;;;0.85;0.80;;;24.40;48.00;;;;;;5050707;28;20709;-64
2021/08/08 05:20:47;;;;;;;0.90;0.82;;;24.40;48.00;;;;;;5049903;28;20226;-64
2021/08/08 05:23:14;;;;;;;1.00;0.90;;;24.40;48.10;;;;;;5051110;28;20267;-64
2021/08/08 05:25:40;;;;;;;0.75;0.75;;;24.40;48.00;;;;;;5049203;28;20642;-64
2021/08/08 05:28:07;;;;;;;0.95;0.82;;;24.40;48.00;;;;;;5054202;28;20261;-64
2021/08/08 05:30:33;;;;;;;0.80;0.80;;;24.40;48.10;;;;;;5053104;28;20240;-64
2021/08/08 05:33:00;;;;;;;1.02;1.00;;;24.40;48.00;;;;;;5054506;28;20684;-65
2021/08/08 05:35:26;;;;;;;0.90;0.63;;;24.40;48.00;;;;;;5053606;28;20314;-64
2021/08/08 05:37:53;;;;;;;1.02;0.90;;;24.40;48.00;;;;;;5054136;28;20740;-65
2021/08/08 05:40:20;;;;;;;0.80;0.80;;;24.40;48.00;;;;;;5054684;28;20248;-64
2021/08/08 05:42:47;;;;;;;1.20;0.90;;;24.40;48.10;;;;;;5053580;28;20233;-64
2021/08/08 05:45:13;;;;;;;0.60;0.60;;;24.40;48.00;;;;;;5053445;28;20216;-64
2021/08/08 05:47:39;;;;;;;0.73;0.73;;;24.40;48.00;;;;;;5053678;28;20264;-64
2021/08/08 05:50:06;;;;;;;0.90;0.90;;;24.40;48.00;;;;;;5054428;28;20232;-64
2021/08/08 05:52:32;;;;;;;0.82;0.82;;;24.40;48.10;;;;;;5054072;28;20237;-64
2021/08/08 05:54:59;;;;;;;0.65;0.60;;;24.40;48.00;;;;;;5052558;28;20316;-64
2021/08/08 05:57:25;;;;;;;0.70;0.70;;;24.40;48.00;;;;;;5051383;28;20250;-65
2021/08/08 05:59:52;;;;;;;1.48;0.80;;;24.40;48.00;;;;;;5054171;28;20301;-64
2021/08/08 06:02:18;;;;;;;0.90;0.90;;;24.40;48.00;;;;;;5052784;28;20242;-64
2021/08/08 06:04:45;;;;;;;0.80;0.80;;;24.40;48.00;;;;;;5053520;28;20645;-64
2021/08/08 06:07:11;;;;;;;0.80;0.70;;;24.40;48.00;;;;;;5053346;28;20221;-64
2021/08/08 06:09:38;;;;;;;1.48;0.80;;;24.40;48.00;;;;;;5052848;28;20237;-64
2021/08/08 06:12:04;;;;;;;0.73;0.73;;;24.40;48.00;;;;;;5052926;28;20233;-64
2021/08/08 06:14:31;;;;;;;1.13;1.00;;;24.40;48.10;;;;;;5053170;28;20233;-64
2021/08/08 06:16:57;;;;;;;0.90;0.90;;;24.40;48.70;;;;;;5053169;28;20264;-64
2021/08/08 06:19:24;;;;;;;0.70;0.70;;;24.40;48.00;;;;;;5051551;28;20230;-64
2021/08/08 06:21:50;;;;;;;1.30;0.80;;;24.40;48.10;;;;;;5053367;28;20237;-64
2021/08/08 06:24:16;;;;;;;0.70;0.70;;;24.40;48.00;;;;;;5051190;28;20248;-64
2021/08/08 06:26:43;;;;;;;0.80;0.80;;;24.40;48.00;;;;;;5052538;28;20280;-64
2021/08/08 06:29:09;;;;;;;0.73;0.73;;;24.40;48.10;;;;;;5051937;28;20274;-64
2021/08/08 06:31:36;;;;;;;0.82;0.82;;;24.40;48.00;;;;;;5053475;28;20292;-64
2021/08/08 06:34:02;;;;;;;1.48;1.15;;;24.40;48.00;;;;;;5052325;28;20285;-64
2021/08/08 06:36:29;;;;;;;1.52;0.73;;;24.40;48.00;;;;;;5039963;28;20317;-64
2021/08/08 06:38:57;;;;;;;1.55;0.90;;;24.40;48.00;;;;;;5044335;28;20317;-64
2021/08/08 06:41:24;;;;;;;0.80;0.80;;;24.40;48.00;;;;;;5053166;28;20890;-64
2021/08/08 06:43:50;;;;;;;1.02;0.90;;;24.40;48.00;;;;;;5051019;28;20230;-64
2021/08/08 06:46:17;;;;;;;0.75;0.75;;;24.40;48.10;;;;;;5052384;28;20241;-64
2021/08/08 06:48:43;;;;;;;0.75;0.70;;;24.40;48.00;;;;;;5052117;28;20670;-64
2021/08/08 06:51:10;;;;;;;0.70;0.70;;;24.40;48.00;;;;;;5052414;28;20252;-64
2021/08/08 06:53:36;;;;;;;0.90;0.90;;;24.40;48.10;;;;;;5053179;28;20198;-64
2021/08/08 06:56:03;;;;;;;1.08;0.65;;;24.40;48.00;;;;;;5051745;28;20722;-64
2021/08/08 06:58:29;;;;;;;0.80;0.80;;;24.40;48.00;;;;;;5047507;28;20240;-62
2021/08/08 07:00:56;;;;;;;1.10;0.70;;;24.40;48.00;;;;;;5051637;28;20289;-63
2021/08/08 07:03:22;;;;;;;1.02;0.82;;;24.40;48.00;;;;;;5051918;28;20295;-63
2021/08/08 07:05:49;;;;;;;2.72;1.05;;;24.40;48.00;;;;;;5049471;28;20242;-62
2021/08/08 07:08:15;;;;;;;3.22;1.00;;;24.40;48.20;;;;;;5050850;28;20249;-64
2021/08/08 07:10:42;;;;;;;1.95;0.73;;;24.40;48.20;;;;;;5050297;28;20229;-64
2021/08/08 07:13:08;;;;;;;3.40;1.20;;;24.40;48.10;;;;;;5050380;28;20229;-64
2021/08/08 07:15:34;;;;;;;1.88;1.52;;;24.40;48.30;;;;;;5043612;28;20752;-64
2021/08/08 07:18:01;;;;;;;2.53;1.00;;;24.40;48.20;;;;;;5049426;28;20253;-64
2021/08/08 07:20:27;;;;;;;2.33;0.95;;;24.40;48.10;;;;;;5052559;28;20702;-64
2021/08/08 07:22:54;;;;;;;1.83;1.10;;;24.40;48.00;;;;;;5046171;28;20241;-63
2021/08/08 07:25:20;;;;;;;1.70;0.98;;;24.40;48.00;;;;;;5050343;28;20719;-64
2021/08/08 07:27:47;;;;;;;2.50;1.63;;;24.40;48.00;;;;;;5051225;28;20253;-64
2021/08/08 07:30:13;;;;;;;2.13;1.35;;;24.40;48.00;;;;;;5052716;28;20244;-63
2021/08/08 07:32:40;;;;;;;1.60;1.10;;;24.40;48.00;;;;;;5051016;28;20702;-64
2021/08/08 07:35:06;;;;;;;1.88;1.00;;;24.40;48.00;;;;;;5051752;28;20630;-64
2021/08/08 07:37:33;;;;;;;1.10;0.80;;;24.40;48.00;;;;;;5049303;28;20273;-64
2021/08/08 07:39:59;;;;;;;1.15;0.98;;;24.40;48.00;;;;;;5048403;28;20259;-61
2021/08/08 07:42:26;;;;;;;1.15;0.80;;;24.40;48.00;;;;;;5051390;28;20281;-64
2021/08/08 07:44:52;;;;;;;4.22;1.33;;;24.40;48.10;;;;;;5050347;28;20233;-66
2021/08/08 07:47:19;;;;;;;2.35;1.00;;;24.40;47.60;;;;;;5050380;28;20305;-60
2021/08/08 07:49:46;;;;;;;2.17;1.25;;;24.40;47.50;;;;;;5050087;28;20630;-62
2021/08/08 07:52:12;;;;;;;4.30;1.30;;;24.40;47.40;;;;;;5051104;28;20240;-63
2021/08/08 07:54:39;;;;;;;3.67;1.30;;;24.50;47.40;;;;;;5043332;28;20230;-63
2021/08/08 07:57:06;;;;;;;3.28;1.25;;;24.50;47.40;;;;;;5047856;28;20229;-57
2021/08/08 07:59:32;;;;;;;9.20;2.00;;;24.50;47.50;;;;;;5051025;28;20312;-66
2021/08/08 08:01:59;;;;;;;4.75;1.60;;;24.50;48.10;;;;;;5051777;28;20226;-63
2021/08/08 08:04:25;;;;;;;5.68;1.70;;;24.50;48.10;;;;;;5050151;28;20256;-65
2021/08/08 08:06:52;;;;;;;4.00;1.95;;;24.50;48.20;;;;;;5051748;28;20278;-63
2021/08/08 08:09:18;;;;;;;6.32;1.75;;;24.50;49.20;;;;;;5055835;28;20201;-68
2021/08/08 08:11:45;;;;;;;5.15;1.75;;;24.50;49.50;;;;;;5062743;28;20233;-65
2021/08/08 08:14:11;;;;;;;5.35;1.70;;;24.50;49.10;;;;;;5049487;28;20236;-68
2021/08/08 08:16:38;;;;;;;6.60;1.70;;;24.50;49.10;;;;;;5049185;28;20265;-66
2021/08/08 08:19:04;;;;;;;8.65;2.03;;;24.50;49.10;;;;;;5050208;28;20229;-68
2021/08/08 08:21:31;;;;;;;8.45;2.35;;;24.50;49.20;;;;;;5051142;28;20280;-67
2021/08/08 08:23:57;;;;;;;11.00;3.33;;;24.50;49.40;;;;;;5049920;28;20252;-69
2021/08/08 08:26:23;;;;;;;5.75;1.50;;;24.50;50.50;;;;;;5047719;28;20280;-70
2021/08/08 08:28:50;;;;;;;1.27;1.10;;;23.80;45.10;;;;;;5050794;28;20272;-68
2021/08/08 08:31:16;;;;;;;1.98;1.15;;;22.20;46.10;;;;;;5050545;28;20234;-68
2021/08/08 08:33:43;;;;;;;2.13;1.33;;;21.60;46.50;;;;;;5050917;28;20608;-68
2021/08/08 08:36:09;;;;;;;0.98;0.90;;;21.90;46.80;;;;;;5049438;28;20316;-69
2021/08/08 08:38:36;;;;;;;2.45;0.90;;;22.20;47.50;;;;;;5049089;28;20577;-68
2021/08/08 08:41:03;;;;;;;1.55;1.10;;;21.30;45.30;;;;;;5051395;28;20201;-68
2021/08/08 08:43:29;;;;;;;1.38;1.00;;;21.70;46.60;;;;;;5050354;28;20229;-67
2021/08/08 08:45:55;;;;;;;3.42;1.23;;;22.00;47.00;;;;;;5050126;28;20584;-67
2021/08/08 08:48:22;;;;;;;2.75;1.38;;;22.70;46.50;;;;;;5049913;28;20240;-67
2021/08/08 08:50:48;;;;;;;3.85;1.17;;;23.10;46.30;;;;;;5052735;28;20236;-67
2021/08/08 08:53:15;;;;;;;4.70;1.25;;;23.30;46.30;;;;;;5049855;28;20688;-68
2021/08/08 08:55:42;;;;;;;1.83;1.00;;;23.50;46.80;;;;;;5050592;28;20264;-72
2021/08/08 08:58:08;;;;;;;1.17;0.93;;;23.70;47.40;;;;;;5050269;28;20233;-72
2021/08/08 09:00:35;;;;;;;1.40;1.05;;;23.80;47.40;;;;;;5049230;28;20225;-71
2021/08/08 09:03:01;;;;;;;2.70;1.20;;;23.90;47.60;;;;;;5051454;28;20626;-68
2021/08/08 09:05:28;;;;;;;3.42;1.30;;;24.00;47.80;;;;;;5050772;28;20237;-67
2021/08/08 09:07:55;;;;;;;1.63;0.90;;;24.00;47.00;;;;;;5050531;28;20225;-67
2021/08/08 09:10:21;;;;;;;2.08;1.38;;;24.00;47.30;;;;;;5050174;28;20292;-69
2021/08/08 09:12:48;;;;;;;4.68;0.98;;;24.10;46.60;;;;;;5051269;28;20654;-68
2021/08/08 09:15:14;;;;;;;2.35;1.15;;;24.10;46.50;;;;;;5049705;28;20237;-65
2021/08/08 09:17:40;;;;;;;2.13;1.00;;;24.10;47.90;;;;;;5050557;28;20320;-66
2021/08/08 09:20:07;;;;;;;1.08;0.98;;;24.20;47.60;;;;;;5049072;28;20713;-65
2021/08/08 09:22:33;;;;;;;2.15;1.02;;;24.10;48.40;;;;;;5050127;28;20202;-70
2021/08/08 09:25:00;;;;;;;1.23;0.90;;;24.10;48.40;;;;;;5049024;28;20237;-71
2021/08/08 09:27:26;;;;;;;2.83;0.80;;;24.10;48.40;;;;;;5050330;28;20896;-69
2021/08/08 09:29:53;;;;;;;1.40;0.80;;;24.10;47.10;;;;;;5049619;28;20297;-70
2021/08/08 09:32:19;;;;;;;0.90;0.90;;;24.20;47.90;;;;;;5050042;28;20234;-65
2021/08/08 09:34:47;;;;;;;0.98;0.82;;;24.20;47.30;;;;;;5049643;28;20202;-66
2021/08/08 09:37:13;;;;;;;1.38;0.90;;;24.20;47.40;;;;;;5050850;28;20249;-71
2021/08/08 09:39:41;;;;;;;2.03;1.00;;;24.20;47.50;;;;;;5046517;28;20230;-66
2021/08/08 09:42:07;;;;;;;1.50;0.93;;;24.30;48.00;;;;;;5048555;28;20198;-70
2021/08/08 09:44:34;;;;;;;1.13;0.82;;;24.20;47.80;;;;;;5048940;28;20194;-71
2021/08/08 09:47:00;;;;;;;0.75;0.75;;;24.30;47.90;;;;;;5048861;28;20313;-70
2021/08/08 09:49:28;;;;;;;0.93;0.77;;;24.30;47.50;;;;;;5049747;28;20234;-67
2021/08/08 09:51:54;;;;;;;1.85;0.80;;;24.30;47.90;;;;;;5050498;28;20237;-69
2021/08/08 09:54:21;;;;;;;0.98;0.90;;;24.30;47.90;;;;;;5048553;28;20289;-71
2021/08/08 09:56:47;;;;;;;2.78;1.10;;;24.30;47.90;;;;;;5048440;28;20382;-63
2021/08/08 09:59:14;;;;;;;2.38;0.93;;;24.30;45.80;;;;;;5050849;28;20639;-70
2021/08/08 10:01:40;;;;;;;1.73;1.00;;;24.30;47.00;;;;;;5049966;28;20236;-69
2021/08/08 10:04:06;;;;;;;1.17;0.95;;;24.30;46.50;;;;;;5048692;28;20240;-69
2021/08/08 10:06:33;;;;;;;1.08;0.80;;;24.30;44.80;;;;;;5048363;28;20736;-68
2021/08/08 10:08:59;;;;;;;3.13;1.02;;;24.30;45.50;;;;;;5049551;28;20297;-68
2021/08/08 10:11:26;;;;;;;0.73;0.73;;;24.30;45.50;;;;;;5050119;28;20244;-68
2021/08/08 10:13:53;;;;;;;2.10;1.02;;;24.30;45.00;;;;;;5054467;28;20248;-68
2021/08/08 10:16:20;;;;;;;1.08;0.90;;;24.20;44.20;;;;;;5053341;28;20232;-67
2021/08/08 10:18:46;;;;;;;1.42;1.00;;;24.30;44.70;;;;;;5050617;28;20541;-67
2021/08/08 10:21:13;;;;;;;1.83;1.45;;;24.20;44.40;;;;;;5054211;28;20279;-69
2021/08/08 10:23:39;;;;;;;0.80;0.80;;;24.20;43.80;;;;;;5053349;28;20233;-70
2021/08/08 10:26:06;;;;;;;1.50;0.82;;;24.20;43.10;;;;;;5051169;28;20767;-68
2021/08/08 10:28:32;;;;;;;1.38;0.80;;;24.20;43.10;;;;;;5052407;28;20236;-68
2021/08/08 10:30:59;;;;;;;1.83;0.90;;;24.20;44.30;;;;;;5053073;28;20236;-68
2021/08/08 10:33:25;;;;;;;0.95;0.93;;;24.20;43.80;;;;;;5053876;28;20202;-66
2021/08/08 10:35:52;;;;;;;1.67;0.70;;;24.20;43.10;;;;;;5052548;28;20218;-63
2021/08/08 10:38:18;;;;;;;3.53;0.90;;;24.20;43.10;;;;;;5052654;28;20263;-64
2021/08/08 10:40:46;;;;;;;3.72;1.15;;;24.20;43.90;;;;;;5052994;28;20225;-64
2021/08/08 10:43:13;;;;;;;4.45;1.30;;;24.20;44.40;;;;;;5045624;28;20263;-66
2021/08/08 10:45:39;;;;;;;2.97;1.20;;;24.30;44.50;;;;;;5048948;28;20252;-68
2021/08/08 10:48:06;;;;;;;2.63;0.90;;;24.30;45.50;;;;;;5052919;28;20245;-66
2021/08/08 10:50:32;;;;;;;4.10;1.17;;;24.30;45.00;;;;;;5052673;28;20240;-59
2021/08/08 10:52:59;;;;;;;2.75;1.00;;;24.30;44.20;;;;;;5051952;28;20229;-59
2021/08/08 10:55:27;;;;;;;5.10;1.05;;;24.30;44.70;;;;;;5053037;28;20249;-59
2021/08/08 10:57:53;;;;;;;2.38;0.95;;;24.30;44.60;;;;;;5046381;28;20237;-59
2021/08/08 11:00:20;;;;;;;2.45;1.10;;;24.30;45.30;;;;;;5050482;28;20256;-61
2021/08/08 11:02:47;;;;;;;1.77;0.80;;;24.30;44.00;;;;;;5054270;28;20197;-59
2021/08/08 11:05:13;;;;;;;2.60;0.88;;;24.30;43.20;;;;;;5050814;28;20204;-59
2021/08/08 11:07:39;;;;;;;2.67;1.23;;;24.30;43.20;;;;;;5052330;28;20210;-54
2021/08/08 11:10:06;;;;;;;1.48;1.00;;;24.30;43.60;;;;;;5052025;28;20751;-57
2021/08/08 11:12:33;;;;;;;1.17;0.80;;;24.30;43.20;;;;;;5051643;28;20242;-58
2021/08/08 11:14:59;;;;;;;1.98;1.10;;;24.30;43.20;;;;;;5051075;28;20202;-59
2021/08/08 11:17:25;;;;;;;1.65;1.00;;;24.40;43.30;;;;;;5052103;28;20672;-58
2021/08/08 11:19:52;;;;;;;1.20;0.93;;;24.40;43.30;;;;;;5050841;28;20232;-58
2021/08/08 11:22:18;;;;;;;1.88;1.15;;;24.40;43.30;;;;;;5050689;28;20289;-57
2021/08/08 11:24:45;;;;;;;1.77;0.88;;;24.40;44.10;;;;;;5048428;28;20670;-54
2021/08/08 11:27:12;;;;;;;3.63;1.15;;;24.40;44.60;;;;;;5049989;28;20309;-59
2021/08/08 11:29:38;;;;;;;1.45;0.90;;;24.40;44.70;;;;;;5050474;28;20244;-59
2021/08/08 11:32:05;;;;;;;1.55;1.17;;;24.40;44.80;;;;;;5052606;28;20202;-59
2021/08/08 11:34:31;;;;;;;2.22;0.98;;;24.40;44.40;;;;;;5048266;28;20225;-59
2021/08/08 11:36:58;;;;;;;3.90;1.10;;;24.30;43.90;;;;;;5048829;28;20273;-58
2021/08/08 11:39:24;;;;;;;2.47;1.40;;;24.30;43.70;;;;;;5049011;28;20288;-58
2021/08/08 11:41:51;;;;;;;4.65;1.20;;;24.30;43.80;;;;;;5043721;28;20249;-59
2021/08/08 11:44:17;;;;;;;2.60;1.20;;;24.30;43.20;;;;;;5042999;28;20643;-59
2021/08/08 11:46:45;;;;;;;3.58;1.33;;;24.30;42.80;;;;;;5050604;28;20230;-58
2021/08/08 11:49:12;;;;;;;1.33;1.10;;;24.30;42.70;;;;;;5050917;28;20264;-59
2021/08/08 11:51:38;;;;;;;1.40;1.20;;;24.30;42.80;;;;;;5041062;28;20226;-59
2021/08/08 11:54:05;;;;;;;3.25;1.15;;;24.30;43.10;;;;;;5050822;28;20636;-59
2021/08/08 11:56:32;;;;;;;5.03;1.08;;;24.30;42.60;;;;;;5050135;28;20304;-59
2021/08/08 11:58:58;;;;;;;2.78;1.20;;;24.30;41.70;;;;;;5051904;28;20640;-59
2021/08/08 12:01:25;;;;;;;1.30;1.02;;;24.30;41.50;;;;;;5051138;28;20653;-59
2021/08/08 12:03:51;;;;;;;1.30;1.13;;;24.20;41.20;;;;;;5041341;28;20300;-60
2021/08/08 12:06:18;;;;;;;2.03;1.00;;;24.20;41.00;;;;;;5048649;28;20268;-59
2021/08/08 12:08:44;;;;;;;2.10;1.25;;;24.20;40.60;;;;;;5050339;28;20548;-59
2021/08/08 12:11:11;;;;;;;1.33;1.00;;;24.20;40.20;;;;;;5046025;28;20244;-59
2021/08/08 12:13:37;;;;;;;1.10;0.88;;;24.20;40.60;;;;;;5047863;28;20233;-59
2021/08/08 12:16:04;;;;;;;2.05;1.60;;;24.20;40.60;;;;;;5049254;28;20311;-59
2021/08/08 12:18:30;;;;;;;2.22;1.15;;;24.20;40.70;;;;;;5049043;28;20290;-58
2021/08/08 12:20:57;;;;;;;2.03;1.00;;;24.20;40.50;;;;;;5049275;28;20289;-58
2021/08/08 12:23:24;;;;;;;1.08;0.80;;;24.20;40.00;;;;;;5050167;28;20635;-59
2021/08/08 12:25:50;;;;;;;1.88;0.90;;;24.20;39.80;;;;;;5049650;28;20268;-59
2021/08/08 12:28:17;;;;;;;2.00;0.85;;;24.10;39.60;;;;;;5050304;28;20639;-59
2021/08/08 12:30:44;;;;;;;2.20;1.00;;;24.10;39.40;;;;;;5051143;28;20229;-58
2021/08/08 12:33:10;;;;;;;1.40;0.90;;;24.10;39.40;;;;;;5051202;28;20214;-58
2021/08/08 12:35:36;;;;;;;1.63;1.02;;;24.10;39.70;;;;;;5050199;28;20214;-61
2021/08/08 12:38:03;;;;;;;1.25;1.15;;;24.10;39.10;;;;;;5049863;28;20316;-59
2021/08/08 12:40:30;;;;;;;3.55;1.10;;;24.10;39.60;;;;;;5049635;28;20697;-60
2021/08/08 12:42:56;;;;;;;1.75;1.10;;;24.20;38.80;;;;;;5049503;28;20234;-60